createdAt,value
2018-06-27T00:02:28.305Z,16.53
2018-06-27T00:04:56.752Z,13.83
2018-06-27T00:07:25.214Z,15.30
2018-06-27T00:09:53.590Z,15.40
2018-06-27T00:12:22.092Z,16.50
2018-06-27T00:14:50.540Z,16.90
2018-06-27T00:17:18.934Z,16.90
2018-06-27T00:19:47.393Z,14.00
2018-06-27T00:22:15.788Z,16.23
2018-06-27T00:24:44.236Z,15.87
2018-06-27T00:27:12.745Z,16.63
2018-06-27T00:29:41.233Z,19.30
2018-06-27T00:32:09.688Z,19.87
2018-06-27T00:34:38.128Z,16.50
2018-06-27T00:37:06.549Z,14.70
2018-06-27T00:39:35.044Z,15.50
2018-06-27T00:42:03.482Z,14.00
2018-06-27T00:44:31.882Z,16.30
2018-06-27T00:47:00.468Z,13.87
2018-06-27T00:49:28.864Z,15.70
2018-06-27T00:51:57.275Z,13.70
2018-06-27T00:54:25.952Z,17.27
2018-06-27T00:56:54.349Z,13.40
2018-06-27T00:59:22.771Z,16.17
2018-06-27T01:01:51.186Z,14.80
2018-06-27T01:04:19.623Z,13.00
2018-06-27T01:06:48.013Z,14.13
2018-06-27T01:09:16.460Z,13.07
2018-06-27T01:11:44.985Z,15.10
2018-06-27T01:14:13.410Z,14.50
2018-06-27T01:16:41.849Z,17.97
2018-06-27T01:19:10.307Z,14.70
2018-06-27T01:21:38.823Z,14.20
2018-06-27T01:24:07.262Z,15.53
2018-06-27T01:26:35.673Z,16.60
2018-06-27T01:29:04.120Z,15.43
2018-06-27T01:31:32.608Z,13.40
2018-06-27T01:34:01.088Z,17.10
2018-06-27T01:36:29.549Z,17.10
2018-06-27T01:38:57.995Z,16.13
2018-06-27T01:41:26.387Z,19.27
2018-06-27T01:43:54.760Z,22.50
2018-06-27T01:46:23.182Z,25.50
2018-06-27T01:48:51.599Z,19.63
2018-06-27T01:51:20.052Z,17.40
2018-06-27T01:53:48.460Z,16.00
2018-06-27T01:56:16.940Z,19.43
2018-06-27T01:58:45.362Z,19.83
2018-06-27T02:01:13.810Z,16.23
2018-06-27T02:03:42.216Z,20.77
2018-06-27T02:06:10.615Z,22.70
2018-06-27T02:08:39.051Z,20.23
2018-06-27T02:11:07.489Z,19.80
2018-06-27T02:13:35.900Z,20.07
2018-06-27T02:16:04.476Z,20.23
2018-06-27T02:18:32.875Z,16.73
2018-06-27T02:21:01.302Z,19.50
2018-06-27T02:23:29.744Z,18.03
2018-06-27T02:25:58.145Z,17.53
2018-06-27T02:28:26.552Z,20.77
2018-06-27T02:30:54.995Z,16.40
2018-06-27T02:33:30.132Z,19.30
2018-06-27T02:35:59.376Z,16.63
2018-06-27T02:38:28.197Z,18.60
2018-06-27T02:40:56.771Z,20.70
2018-06-27T02:43:25.442Z,20.20
2018-06-27T02:45:54.976Z,21.50
2018-06-27T02:48:23.367Z,17.67
2018-06-27T02:50:51.859Z,18.30
2018-06-27T02:53:20.352Z,22.20
2018-06-27T02:55:48.801Z,19.90
2018-06-27T02:58:17.247Z,22.60
2018-06-27T03:00:45.713Z,21.00
2018-06-27T03:03:14.103Z,23.30
2018-06-27T03:05:42.562Z,19.43
2018-06-27T03:08:10.971Z,24.60
2018-06-27T03:10:39.421Z,22.53
2018-06-27T03:13:07.832Z,24.67
2018-06-27T03:15:36.257Z,28.07
2018-06-27T03:18:04.865Z,23.40
2018-06-27T03:20:33.316Z,23.10
2018-06-27T03:23:02.297Z,24.23
2018-06-27T03:25:30.804Z,26.07
2018-06-27T03:28:00.080Z,24.73
2018-06-27T03:30:28.542Z,27.90
2018-06-27T03:32:56.938Z,25.20
2018-06-27T03:35:25.351Z,27.57
2018-06-27T03:37:53.740Z,27.07
2018-06-27T03:40:22.151Z,28.77
2018-06-27T03:42:50.527Z,27.83
2018-06-27T03:45:18.903Z,26.50
2018-06-27T03:47:47.307Z,24.40
2018-06-27T03:50:15.724Z,26.63
2018-06-27T03:52:46.714Z,28.27
2018-06-27T03:55:15.904Z,24.30
2018-06-27T03:57:44.491Z,31.07
2018-06-27T04:00:12.984Z,27.47
2018-06-27T04:02:42.272Z,26.40
2018-06-27T04:05:10.761Z,28.10
2018-06-27T04:07:39.168Z,30.63
2018-06-27T04:10:09.213Z,29.80
2018-06-27T04:12:37.747Z,26.53
2018-06-27T04:15:06.914Z,27.47
2018-06-27T04:17:35.325Z,24.47
2018-06-27T04:20:03.888Z,27.80
2018-06-27T04:22:33.869Z,25.33
2018-06-27T04:25:02.421Z,26.43
2018-06-27T04:27:31.950Z,24.20
2018-06-27T04:30:01.710Z,23.80
2018-06-27T04:32:30.099Z,30.80
2018-06-27T04:34:59.681Z,23.30
2018-06-27T04:37:28.082Z,23.27
2018-06-27T04:39:56.840Z,26.87
2018-06-27T04:42:25.269Z,28.23
2018-06-27T04:44:53.680Z,29.37
2018-06-27T04:47:22.109Z,27.10
2018-06-27T04:49:50.710Z,24.13
2018-06-27T04:52:19.134Z,38.33
2018-06-27T04:54:47.627Z,30.00
2018-06-27T04:57:15.997Z,26.33
2018-06-27T04:59:44.424Z,22.17
2018-06-27T05:02:12.813Z,24.23
2018-06-27T05:04:41.240Z,25.40
2018-06-27T05:07:09.675Z,24.90
2018-06-27T05:09:38.084Z,24.90
2018-06-27T05:12:07.312Z,22.33
2018-06-27T05:14:35.722Z,26.10
2018-06-27T05:17:04.140Z,22.97
2018-06-27T05:19:32.612Z,21.50
2018-06-27T05:22:01.014Z,23.83
2018-06-27T05:24:29.447Z,22.03
2018-06-27T05:26:57.880Z,19.60
2018-06-27T05:29:26.299Z,21.43
2018-06-27T05:31:54.723Z,22.43
2018-06-27T05:34:23.148Z,23.43
2018-06-27T05:36:52.138Z,21.97
2018-06-27T05:39:21.231Z,17.50
2018-06-27T05:41:50.112Z,17.20
2018-06-27T05:44:18.617Z,19.10
2018-06-27T05:46:46.940Z,21.90
2018-06-27T05:49:15.410Z,21.07
2018-06-27T05:51:43.820Z,19.30
2018-06-27T05:54:12.241Z,24.97
2018-06-27T05:56:41.663Z,22.30
2018-06-27T05:59:10.207Z,22.13
2018-06-27T06:01:38.623Z,25.23
2018-06-27T06:04:07.081Z,24.20
2018-06-27T06:06:35.681Z,21.50
2018-06-27T06:09:06.359Z,25.53
2018-06-27T06:11:34.881Z,26.93
2018-06-27T06:14:03.326Z,23.37
2018-06-27T06:16:31.722Z,22.57
2018-06-27T06:19:00.122Z,33.23
2018-06-27T06:21:28.592Z,35.83
2018-06-27T06:23:57.099Z,27.00
2018-06-27T06:26:25.547Z,24.57
2018-06-27T06:28:53.975Z,23.83
2018-06-27T06:31:22.424Z,25.50
2018-06-27T06:33:51.513Z,21.37
2018-06-27T06:36:20.026Z,21.43
2018-06-27T06:38:48.481Z,26.00
2018-06-27T06:41:16.885Z,24.13
2018-06-27T06:43:45.301Z,19.53
2018-06-27T06:46:13.689Z,24.00
2018-06-27T06:48:42.115Z,22.47
2018-06-27T06:51:10.753Z,25.33
2018-06-27T06:53:39.213Z,25.50
2018-06-27T06:56:07.633Z,19.53
2018-06-27T06:58:36.036Z,20.77
2018-06-27T07:01:04.478Z,22.37
2018-06-27T07:03:32.847Z,16.47
2018-06-27T07:06:01.297Z,25.90
2018-06-27T07:08:29.734Z,19.80
2018-06-27T07:10:58.229Z,21.97
2018-06-27T07:13:26.623Z,37.07
2018-06-27T07:15:55.040Z,18.63
2018-06-27T07:18:23.431Z,19.93
2018-06-27T07:20:51.900Z,19.53
2018-06-27T07:23:20.346Z,16.77
2018-06-27T07:25:48.758Z,18.07
2018-06-27T07:28:17.198Z,18.20
2018-06-27T07:30:45.641Z,19.97
2018-06-27T07:33:14.074Z,17.50
2018-06-27T07:35:42.487Z,20.80
2018-06-27T07:38:11.060Z,20.40
2018-06-27T07:40:39.495Z,15.60
2018-06-27T07:43:07.921Z,17.97
2018-06-27T07:45:36.302Z,16.17
2018-06-27T07:48:04.763Z,21.87
2018-06-27T07:50:33.286Z,21.53
2018-06-27T07:53:01.710Z,16.60
2018-06-27T07:55:30.090Z,13.33
2018-06-27T07:57:58.469Z,14.97
2018-06-27T08:00:26.924Z,17.73
2018-06-27T08:02:55.308Z,12.23
2018-06-27T08:05:23.716Z,13.23
2018-06-27T08:07:52.815Z,14.67
2018-06-27T08:10:21.254Z,14.40
2018-06-27T08:12:51.518Z,12.73
2018-06-27T08:15:20.664Z,17.10
2018-06-27T08:17:49.180Z,13.33
2018-06-27T08:20:17.605Z,16.50
2018-06-27T08:22:45.991Z,14.07
2018-06-27T08:25:14.540Z,19.37
2018-06-27T08:27:43.047Z,16.43
2018-06-27T08:30:11.495Z,14.67
2018-06-27T08:32:40.005Z,15.77
2018-06-27T08:35:08.414Z,13.37
2018-06-27T08:37:36.794Z,17.23
2018-06-27T08:40:05.432Z,19.23
2018-06-27T08:42:33.823Z,16.50
2018-06-27T08:45:02.203Z,13.50
2018-06-27T08:47:30.621Z,14.67
2018-06-27T08:49:59.036Z,14.50
2018-06-27T08:52:27.424Z,18.20
2018-06-27T08:54:55.830Z,10.47
2018-06-27T08:57:24.253Z,18.17
2018-06-27T08:59:52.634Z,12.33
2018-06-27T09:02:21.036Z,18.70
2018-06-27T09:04:49.469Z,14.13
2018-06-27T09:07:18.160Z,12.33
2018-06-27T09:09:46.635Z,15.80
2018-06-27T09:12:15.126Z,14.07
2018-06-27T09:14:43.557Z,16.13
2018-06-27T09:17:11.967Z,14.20
2018-06-27T09:19:40.344Z,14.33
2018-06-27T09:22:08.754Z,14.17
2018-06-27T09:24:37.204Z,12.57
2018-06-27T09:27:05.747Z,14.57
2018-06-27T09:29:34.137Z,16.13
2018-06-27T09:32:02.590Z,16.80
2018-06-27T09:34:31.018Z,11.20
2018-06-27T09:36:59.377Z,9.63
2018-06-27T09:39:27.822Z,10.30
2018-06-27T09:41:56.224Z,11.37
2018-06-27T09:44:24.647Z,9.50
2018-06-27T09:46:53.037Z,8.53
2018-06-27T09:49:21.428Z,9.73
2018-06-27T09:51:49.801Z,9.93
2018-06-27T09:54:18.213Z,9.70
2018-06-27T09:56:46.662Z,11.90
2018-06-27T09:59:15.201Z,10.80
2018-06-27T10:01:43.600Z,10.10
2018-06-27T10:04:12.000Z,7.60
2018-06-27T10:06:40.417Z,11.00
2018-06-27T10:09:09.794Z,13.13
2018-06-27T10:11:38.196Z,12.33
2018-06-27T10:14:06.837Z,8.33
2018-06-27T10:16:35.427Z,14.50
2018-06-27T10:19:03.869Z,18.70
2018-06-27T10:21:32.321Z,15.33
2018-06-27T10:24:01.660Z,12.90
2018-06-27T10:26:30.132Z,20.20
2018-06-27T10:28:58.540Z,14.03
2018-06-27T10:31:26.927Z,14.37
2018-06-27T10:33:55.644Z,24.10
2018-06-27T10:36:24.065Z,13.40
2018-06-27T10:38:52.502Z,10.17
2018-06-27T10:41:21.246Z,11.80
2018-06-27T10:43:49.633Z,15.33
2018-06-27T10:46:18.175Z,7.70
2018-06-27T10:48:46.684Z,8.37
2018-06-27T10:51:15.121Z,9.83
2018-06-27T10:53:43.528Z,11.90
2018-06-27T10:56:11.998Z,8.70
2018-06-27T10:58:40.403Z,9.47
2018-06-27T11:01:08.802Z,7.20
2018-06-27T11:03:37.196Z,13.10
2018-06-27T11:06:06.001Z,9.20
2018-06-27T11:08:35.281Z,6.33
2018-06-27T11:11:03.791Z,6.47
2018-06-27T11:13:32.188Z,5.33
2018-06-27T11:16:00.596Z,6.83
2018-06-27T11:18:29.030Z,4.30
2018-06-27T11:20:57.417Z,6.90
2018-06-27T11:23:25.845Z,7.30
2018-06-27T11:25:54.260Z,6.63
2018-06-27T11:28:22.692Z,5.47
2018-06-27T11:30:51.051Z,5.30
2018-06-27T11:33:19.589Z,8.43
2018-06-27T11:35:48.161Z,4.80
2018-06-27T11:38:16.559Z,3.80
2018-06-27T11:40:44.975Z,4.13
2018-06-27T11:43:13.421Z,11.10
2018-06-27T11:45:41.804Z,5.27
2018-06-27T11:48:10.221Z,7.73
2018-06-27T11:50:38.649Z,5.97
2018-06-27T11:53:07.089Z,4.50
2018-06-27T11:55:35.561Z,6.77
2018-06-27T11:58:03.997Z,3.30
2018-06-27T12:00:32.603Z,4.80
2018-06-27T12:03:01.880Z,4.97
2018-06-27T12:05:30.277Z,4.33
2018-06-27T12:07:58.711Z,5.93
2018-06-27T12:10:27.076Z,2.70
2018-06-27T12:12:55.511Z,6.40
2018-06-27T12:15:23.974Z,4.47
2018-06-27T12:17:52.372Z,4.33
2018-06-27T12:20:20.881Z,5.57
2018-06-27T12:22:49.338Z,3.63
2018-06-27T12:25:18.246Z,3.87
2018-06-27T12:27:46.720Z,3.70
2018-06-27T12:30:19.859Z,2.63
2018-06-27T12:32:48.506Z,3.50
2018-06-27T12:35:17.033Z,15.87
2018-06-27T12:37:45.514Z,16.23
2018-06-27T12:40:13.987Z,6.43
2018-06-27T12:42:42.412Z,4.70
2018-06-27T12:45:11.736Z,4.10
2018-06-27T12:47:40.648Z,6.10
2018-06-27T12:50:09.777Z,5.50
2018-06-27T12:52:38.408Z,6.83
2018-06-27T12:55:08.968Z,4.23
2018-06-27T12:57:37.444Z,11.00
2018-06-27T13:00:07.870Z,12.13
2018-06-27T13:02:36.361Z,11.63
2018-06-27T13:05:05.845Z,5.23
2018-06-27T13:07:34.388Z,7.40
2018-06-27T13:10:02.898Z,5.30
2018-06-27T13:12:31.314Z,4.73
2018-06-27T13:14:59.757Z,7.03
2018-06-27T13:17:28.182Z,7.23
2018-06-27T13:19:56.588Z,5.07
2018-06-27T13:22:25.001Z,6.50
2018-06-27T13:24:53.470Z,6.30
2018-06-27T13:27:22.183Z,5.70
2018-06-27T13:29:50.614Z,8.07
2018-06-27T13:32:19.055Z,5.57
2018-06-27T13:34:47.450Z,5.93
2018-06-27T13:37:15.887Z,3.20
2018-06-27T13:39:44.311Z,5.27
2018-06-27T13:42:12.810Z,13.73
2018-06-27T13:44:41.223Z,5.40
2018-06-27T13:47:09.662Z,12.50
2018-06-27T13:49:38.076Z,5.67
2018-06-27T13:52:06.953Z,5.80
2018-06-27T13:54:35.428Z,4.13
2018-06-27T13:57:03.872Z,5.80
2018-06-27T13:59:32.315Z,6.30
2018-06-27T14:02:00.943Z,5.27
2018-06-27T14:04:29.442Z,6.03
2018-06-27T14:06:57.822Z,6.13
2018-06-27T14:09:26.231Z,4.13
2018-06-27T14:11:54.965Z,17.67
2018-06-27T14:14:23.627Z,5.73
2018-06-27T14:16:52.068Z,5.27
2018-06-27T14:19:20.486Z,7.73
2018-06-27T14:21:49.308Z,5.40
2018-06-27T14:24:17.737Z,4.03
2018-06-27T14:26:46.204Z,4.67
2018-06-27T14:29:14.578Z,7.13
2018-06-27T14:31:44.329Z,12.30
2018-06-27T14:34:13.004Z,12.83
2018-06-27T14:36:41.474Z,4.10
2018-06-27T14:39:10.512Z,5.80
2018-06-27T14:41:39.198Z,5.37
2018-06-27T14:44:07.744Z,3.57
2018-06-27T14:46:38.544Z,19.13
2018-06-27T14:49:06.924Z,7.23
2018-06-27T14:51:35.868Z,18.83
2018-06-27T14:54:04.873Z,6.50
2018-06-27T14:56:33.453Z,4.67
2018-06-27T14:59:01.875Z,4.60
2018-06-27T15:01:30.279Z,4.13
2018-06-27T15:03:58.695Z,7.40
2018-06-27T15:06:27.130Z,5.80
2018-06-27T15:08:55.588Z,7.20
2018-06-27T15:11:24.265Z,3.10
2018-06-27T15:13:52.652Z,3.97
2018-06-27T15:16:21.108Z,7.30
2018-06-27T15:18:49.513Z,8.53
2018-06-27T15:21:18.081Z,4.90
2018-06-27T15:23:46.638Z,8.10
2018-06-27T15:26:14.953Z,5.83
2018-06-27T15:28:43.412Z,10.83
2018-06-27T15:31:11.892Z,6.93
2018-06-27T15:33:41.211Z,3.57
2018-06-27T15:36:09.621Z,4.30
2018-06-27T15:38:38.025Z,3.03
2018-06-27T15:41:08.049Z,23.67
2018-06-27T15:43:36.567Z,6.30
2018-06-27T15:46:05.642Z,6.13
2018-06-27T15:48:34.199Z,3.77
2018-06-27T15:51:02.748Z,6.17
2018-06-27T15:53:31.282Z,4.23
2018-06-27T15:55:59.735Z,10.23
2018-06-27T15:58:29.960Z,4.60
2018-06-27T16:00:58.472Z,11.40
2018-06-27T16:03:27.084Z,4.93
2018-06-27T16:05:55.499Z,7.20
2018-06-27T16:08:23.970Z,9.67
2018-06-27T16:10:53.160Z,13.03
2018-06-27T16:13:21.606Z,4.00
2018-06-27T16:15:50.108Z,4.27
2018-06-27T16:18:18.517Z,8.83
2018-06-27T16:20:47.504Z,3.77
2018-06-27T16:23:15.967Z,6.00
2018-06-27T16:25:45.319Z,5.63
2018-06-27T16:28:13.759Z,8.00
2018-06-27T16:30:42.236Z,6.13
2018-06-27T16:33:10.709Z,5.07
2018-06-27T16:35:39.129Z,3.47
2018-06-27T16:38:07.585Z,3.83
2018-06-27T16:40:36.020Z,4.93
2018-06-27T16:43:05.227Z,9.97
2018-06-27T16:45:33.689Z,5.17
2018-06-27T16:48:02.168Z,7.10
2018-06-27T16:50:30.694Z,6.20
2018-06-27T16:52:59.047Z,5.23
2018-06-27T16:55:27.622Z,8.10
2018-06-27T16:57:56.140Z,5.13
2018-06-27T17:00:24.533Z,5.50
2018-06-27T17:02:52.952Z,3.80
2018-06-27T17:05:21.383Z,10.53
2018-06-27T17:07:49.782Z,5.37
2018-06-27T17:10:18.304Z,4.03
2018-06-27T17:12:46.847Z,8.70
2018-06-27T17:15:15.328Z,8.90
2018-06-27T17:17:43.766Z,4.90
2018-06-27T17:20:12.221Z,4.43
2018-06-27T17:22:40.705Z,3.70
2018-06-27T17:25:09.229Z,4.73
2018-06-27T17:27:37.644Z,8.00
2018-06-27T17:30:06.169Z,5.43
2018-06-27T17:32:35.423Z,5.40
2018-06-27T17:35:03.884Z,3.90
2018-06-27T17:37:32.373Z,10.33
2018-06-27T17:40:00.925Z,19.00
2018-06-27T17:42:29.570Z,10.20
2018-06-27T17:44:57.976Z,5.93
2018-06-27T17:47:26.427Z,5.77
2018-06-27T17:49:54.827Z,6.03
2018-06-27T17:52:23.263Z,10.20
2018-06-27T17:54:51.826Z,3.60
2018-06-27T17:57:20.316Z,2.37
2018-06-27T17:59:48.810Z,8.50
2018-06-27T18:02:17.300Z,3.50
2018-06-27T18:04:45.760Z,3.03
2018-06-27T18:07:14.204Z,7.50
2018-06-27T18:09:42.661Z,8.50
2018-06-27T18:12:11.060Z,29.73
2018-06-27T18:14:39.511Z,3.90
2018-06-27T18:17:08.029Z,4.53
2018-06-27T18:19:36.449Z,4.37
2018-06-27T18:22:05.015Z,4.80
2018-06-27T18:24:33.673Z,4.47
2018-06-27T18:27:02.148Z,5.20
2018-06-27T18:29:30.688Z,6.83
2018-06-27T18:31:59.179Z,27.13
2018-06-27T18:34:27.701Z,2.70
2018-06-27T18:36:56.152Z,3.17
2018-06-27T18:39:24.597Z,2.70
2018-06-27T18:41:52.981Z,2.30
2018-06-27T18:44:21.372Z,2.30
2018-06-27T18:46:49.788Z,2.13
2018-06-27T18:49:18.245Z,4.90
2018-06-27T18:51:46.661Z,2.90
2018-06-27T18:54:15.102Z,15.00
2018-06-27T18:56:43.525Z,9.87
2018-06-27T18:59:11.988Z,2.90
2018-06-27T19:01:40.415Z,2.20
2018-06-27T19:04:08.897Z,23.90
2018-06-27T19:06:37.343Z,6.60
2018-06-27T19:09:08.870Z,2.67
2018-06-27T19:11:37.289Z,4.30
2018-06-27T19:14:05.817Z,3.80
2018-06-27T19:16:34.284Z,4.30
2018-06-27T19:19:02.865Z,5.47
2018-06-27T19:21:31.292Z,2.27
2018-06-27T19:23:59.689Z,10.93
2018-06-27T19:26:28.170Z,2.60
2018-06-27T19:28:56.553Z,4.73
2018-06-27T19:31:24.972Z,8.23
2018-06-27T19:33:53.595Z,4.80
2018-06-27T19:36:22.068Z,4.53
2018-06-27T19:38:50.550Z,4.30
2018-06-27T19:41:19.083Z,3.20
2018-06-27T19:43:47.393Z,4.23
2018-06-27T19:46:15.815Z,102.57
2018-06-27T19:48:44.521Z,8.80
2018-06-27T19:51:12.962Z,3.83
2018-06-27T19:53:41.417Z,3.97
2018-06-27T19:56:09.845Z,6.60
2018-06-27T19:58:38.281Z,3.43
2018-06-27T20:01:06.963Z,3.57
2018-06-27T20:03:35.521Z,2.83
2018-06-27T20:06:04.032Z,2.17
2018-06-27T20:08:32.589Z,8.03
2018-06-27T20:11:00.992Z,3.13
2018-06-27T20:13:29.454Z,3.77
2018-06-27T20:15:57.972Z,39.30
2018-06-27T20:18:26.395Z,47.17
2018-06-27T20:20:54.919Z,6.47
2018-06-27T20:23:23.479Z,5.30
2018-06-27T20:25:52.019Z,4.40
2018-06-27T20:28:20.429Z,10.70
2018-06-27T20:30:48.850Z,33.83
2018-06-27T20:33:17.349Z,6.90
2018-06-27T20:35:45.769Z,3.80
2018-06-27T20:38:14.142Z,2.40
2018-06-27T20:40:42.567Z,7.60
2018-06-27T20:43:11.213Z,2.60
2018-06-27T20:45:39.693Z,3.70
2018-06-27T20:48:08.164Z,4.27
2018-06-27T20:50:36.616Z,2.30
2018-06-27T20:53:05.440Z,8.97
2018-06-27T20:55:34.056Z,2.13
2018-06-27T20:58:02.489Z,3.30
2018-06-27T21:00:30.945Z,4.27
2018-06-27T21:02:59.377Z,2.67
2018-06-27T21:05:27.798Z,20.90
2018-06-27T21:07:56.285Z,19.80
2018-06-27T21:10:24.717Z,2.77
2018-06-27T21:12:53.896Z,5.30
2018-06-27T21:15:22.361Z,4.50
2018-06-27T21:17:50.773Z,6.00
2018-06-27T21:20:19.264Z,6.43
2018-06-27T21:22:47.627Z,5.77
2018-06-27T21:25:16.045Z,51.80
2018-06-27T21:27:44.512Z,10.37
2018-06-27T21:30:12.931Z,2.67
2018-06-27T21:32:41.373Z,2.70
2018-06-27T21:35:09.783Z,1.90
2018-06-27T21:37:38.207Z,2.00
2018-06-27T21:40:06.697Z,10.17
2018-06-27T21:42:35.374Z,3.60
2018-06-27T21:45:03.977Z,4.83
2018-06-27T21:47:32.427Z,2.70
2018-06-27T21:50:00.865Z,2.80
2018-06-27T21:52:29.270Z,2.50
2018-06-27T21:54:57.709Z,3.00
2018-06-27T21:57:26.081Z,6.00
2018-06-27T21:59:54.512Z,2.33
2018-06-27T22:02:23.000Z,5.30
2018-06-27T22:04:51.502Z,4.53
2018-06-27T22:07:19.933Z,3.43
2018-06-27T22:09:48.404Z,2.77
2018-06-27T22:12:16.839Z,3.40
2018-06-27T22:14:45.294Z,3.47
2018-06-27T22:17:13.834Z,6.00
2018-06-27T22:19:42.228Z,2.83
2018-06-27T22:22:10.757Z,2.63
2018-06-27T22:24:39.266Z,3.37
2018-06-27T22:27:07.922Z,3.20
2018-06-27T22:29:37.246Z,5.37
2018-06-27T22:32:05.844Z,3.90
2018-06-27T22:34:34.290Z,3.73
2018-06-27T22:37:02.726Z,2.93
2018-06-27T22:39:31.163Z,10.60
2018-06-27T22:41:59.594Z,5.17
2018-06-27T22:44:27.996Z,4.13
2018-06-27T22:46:56.448Z,2.93
2018-06-27T22:49:24.860Z,4.30
2018-06-27T22:51:53.289Z,5.20
2018-06-27T22:54:21.769Z,6.63
2018-06-27T22:56:50.152Z,3.93
2018-06-27T22:59:18.598Z,4.10
2018-06-27T23:01:47.009Z,3.33
2018-06-27T23:04:15.399Z,8.33
2018-06-27T23:06:43.756Z,3.73
2018-06-27T23:09:12.149Z,5.73
2018-06-27T23:11:40.588Z,7.40
2018-06-27T23:14:09.044Z,4.83
2018-06-27T23:16:37.458Z,4.20
2018-06-27T23:19:05.998Z,3.33
2018-06-27T23:21:34.412Z,4.37
2018-06-27T23:24:02.819Z,7.57
2018-06-27T23:26:31.209Z,6.00
2018-06-27T23:28:59.569Z,7.00
2018-06-27T23:31:28.050Z,5.87
2018-06-27T23:33:56.453Z,6.70
2018-06-27T23:36:24.899Z,9.90
2018-06-27T23:38:53.880Z,5.60
2018-06-27T23:41:22.313Z,6.67
2018-06-27T23:43:50.693Z,8.80
2018-06-27T23:46:19.148Z,4.90
2018-06-27T23:48:47.577Z,6.00
2018-06-27T23:51:16.073Z,5.37
2018-06-27T23:53:44.512Z,4.83
2018-06-27T23:56:12.953Z,6.27
2018-06-27T23:58:42.320Z,4.97
